createdAt,value
2023-09-08T00:01:44.806Z,6.80
2023-09-08T00:04:12.789Z,11.80
2023-09-08T00:06:39.447Z,8.40
2023-09-08T00:09:06.057Z,8.77
2023-09-08T00:11:32.562Z,9.73
2023-09-08T00:13:59.100Z,6.97
2023-09-08T00:16:25.760Z,10.75
2023-09-08T00:18:52.331Z,8.40
2023-09-08T00:21:20.184Z,8.07
2023-09-08T00:23:46.662Z,8.65
2023-09-08T00:26:13.141Z,7.60
2023-09-08T00:28:39.596Z,9.95
2023-09-08T00:31:06.080Z,6.40
2023-09-08T00:33:32.706Z,9.45
2023-09-08T00:35:59.318Z,12.63
2023-09-08T00:38:27.433Z,9.30
2023-09-08T00:40:54.069Z,10.35
2023-09-08T00:43:20.558Z,9.55
2023-09-08T00:45:47.758Z,7.47
2023-09-08T00:48:14.514Z,8.40
2023-09-08T00:50:41.300Z,8.57
2023-09-08T00:53:08.565Z,8.75
2023-09-08T00:55:36.961Z,9.35
2023-09-08T00:58:03.773Z,8.10
2023-09-08T01:00:30.330Z,8.23
2023-09-08T01:02:56.892Z,6.10
2023-09-08T01:05:23.481Z,7.35
2023-09-08T01:07:51.633Z,7.20
2023-09-08T01:10:18.541Z,7.95
2023-09-08T01:12:46.419Z,9.65
2023-09-08T01:15:12.934Z,10.05
2023-09-08T01:17:39.527Z,8.93
2023-09-08T01:20:14.235Z,7.45
2023-09-08T01:22:54.735Z,8.52
2023-09-08T01:25:23.427Z,9.40
2023-09-08T01:27:51.894Z,9.73
2023-09-08T01:30:19.442Z,9.98
2023-09-08T01:32:46.645Z,8.50
2023-09-08T01:35:13.720Z,9.27
2023-09-08T01:37:46.277Z,9.15
2023-09-08T01:40:13.564Z,9.05
2023-09-08T01:42:42.150Z,6.22
2023-09-08T01:45:09.600Z,12.13
2023-09-08T01:47:36.449Z,7.68
2023-09-08T01:50:03.213Z,8.93
2023-09-08T01:52:29.746Z,9.95
2023-09-08T01:54:56.300Z,10.63
2023-09-08T01:57:22.930Z,8.27
2023-09-08T01:59:50.738Z,8.05
2023-09-08T02:02:17.213Z,9.48
2023-09-08T02:04:43.756Z,7.78
2023-09-08T02:07:10.376Z,11.95
2023-09-08T02:09:38.791Z,7.65
2023-09-08T02:12:05.934Z,9.10
2023-09-08T02:14:32.463Z,10.13
2023-09-08T02:17:00.403Z,8.88
2023-09-08T02:19:26.908Z,8.82
2023-09-08T02:21:53.521Z,7.88
2023-09-08T02:24:20.092Z,10.10
2023-09-08T02:26:46.763Z,7.90
2023-09-08T02:29:13.263Z,10.07
2023-09-08T02:31:40.610Z,10.77
2023-09-08T02:34:08.495Z,9.73
2023-09-08T02:36:35.033Z,8.27
2023-09-08T02:39:01.598Z,8.77
2023-09-08T02:41:28.076Z,8.90
2023-09-08T02:43:54.588Z,10.23
2023-09-08T02:46:21.135Z,8.95
2023-09-08T02:48:47.671Z,8.68
2023-09-08T02:51:15.528Z,10.63
2023-09-08T02:53:42.071Z,10.25
2023-09-08T02:56:08.617Z,12.10
2023-09-08T02:58:35.399Z,9.82
2023-09-08T03:01:11.259Z,8.57
2023-09-08T03:03:37.887Z,11.70
2023-09-08T03:06:04.620Z,10.73
2023-09-08T03:08:32.610Z,10.80
2023-09-08T03:11:00.074Z,11.23
2023-09-08T03:13:26.687Z,9.68
2023-09-08T03:15:53.346Z,9.98
2023-09-08T03:18:19.828Z,9.07
2023-09-08T03:20:49.458Z,10.80
2023-09-08T03:23:16.016Z,11.40
2023-09-08T03:25:44.198Z,8.38
2023-09-08T03:28:10.724Z,9.60
2023-09-08T03:30:37.281Z,12.48
2023-09-08T03:33:04.047Z,9.30
2023-09-08T03:35:30.684Z,11.25
2023-09-08T03:37:57.205Z,9.63
2023-09-08T03:40:23.767Z,9.13
2023-09-08T03:42:51.643Z,9.15
2023-09-08T03:45:18.278Z,9.30
2023-09-08T03:47:44.840Z,13.18
2023-09-08T03:50:11.433Z,12.52
2023-09-08T03:52:38.002Z,13.93
2023-09-08T03:55:05.133Z,17.73
2023-09-08T03:57:31.653Z,12.60
2023-09-08T03:59:59.472Z,12.02
2023-09-08T04:02:26.056Z,14.60
2023-09-08T04:04:52.812Z,14.80
2023-09-08T04:07:19.332Z,13.73
2023-09-08T04:09:45.818Z,11.50
2023-09-08T04:12:12.398Z,16.90
2023-09-08T04:14:38.979Z,12.65
2023-09-08T04:17:06.864Z,11.50
2023-09-08T04:19:34.816Z,11.07
2023-09-08T04:22:01.512Z,12.07
2023-09-08T04:24:28.099Z,13.05
2023-09-08T04:26:54.695Z,10.95
2023-09-08T04:29:21.174Z,17.73
2023-09-08T04:31:47.895Z,14.30
2023-09-08T04:34:15.834Z,12.40
2023-09-08T04:36:42.368Z,11.85
2023-09-08T04:39:08.929Z,11.48
2023-09-08T04:41:35.477Z,14.73
2023-09-08T04:44:01.986Z,10.73
2023-09-08T04:46:28.520Z,11.13
2023-09-08T04:48:55.127Z,12.90
2023-09-08T04:51:23.003Z,11.45
2023-09-08T04:53:49.528Z,13.95
2023-09-08T04:56:16.099Z,10.38
2023-09-08T04:58:42.654Z,11.80
2023-09-08T05:01:09.213Z,13.75
2023-09-08T05:03:35.952Z,13.65
2023-09-08T05:06:02.586Z,13.02
2023-09-08T05:08:30.473Z,18.88
2023-09-08T05:10:57.021Z,14.02
2023-09-08T05:13:30.665Z,13.52
2023-09-08T05:15:58.108Z,17.33
2023-09-08T05:18:24.657Z,11.25
2023-09-08T05:20:51.219Z,11.43
2023-09-08T05:23:17.699Z,12.95
2023-09-08T05:25:45.797Z,16.15
2023-09-08T05:28:12.319Z,12.60
2023-09-08T05:30:38.949Z,12.48
2023-09-08T05:33:05.757Z,13.05
2023-09-08T05:35:32.351Z,12.68
2023-09-08T05:37:58.918Z,12.85
2023-09-08T05:40:25.563Z,10.95
2023-09-08T05:42:53.496Z,15.18
2023-09-08T05:45:20.036Z,16.95
2023-09-08T05:47:46.647Z,13.20
2023-09-08T05:50:13.208Z,13.95
2023-09-08T05:52:39.749Z,16.85
2023-09-08T05:55:06.586Z,14.85
2023-09-08T05:57:33.087Z,15.95
2023-09-08T06:00:01.004Z,11.45
2023-09-08T06:02:27.742Z,11.02
2023-09-08T06:04:54.318Z,10.95
2023-09-08T06:07:22.018Z,11.32
2023-09-08T06:09:48.577Z,12.70
2023-09-08T06:12:15.181Z,15.80
2023-09-08T06:14:43.920Z,13.55
2023-09-08T06:17:12.079Z,12.73
2023-09-08T06:19:38.662Z,12.50
2023-09-08T06:22:05.207Z,11.60
2023-09-08T06:24:31.666Z,16.63
2023-09-08T06:26:58.188Z,13.30
2023-09-08T06:29:24.710Z,11.52
2023-09-08T06:31:51.201Z,12.77
2023-09-08T06:34:19.283Z,14.38
2023-09-08T06:36:46.001Z,17.80
2023-09-08T06:39:12.575Z,14.57
2023-09-08T06:41:39.118Z,14.80
2023-09-08T06:44:06.458Z,18.95
2023-09-08T06:46:33.045Z,20.40
2023-09-08T06:48:59.561Z,18.15
2023-09-08T06:51:27.519Z,21.30
2023-09-08T06:53:57.860Z,18.85
2023-09-08T06:56:24.473Z,17.15
2023-09-08T06:58:50.952Z,19.00
2023-09-08T07:01:17.625Z,15.00
2023-09-08T07:03:44.391Z,16.88
2023-09-08T07:06:11.097Z,18.48
2023-09-08T07:08:39.018Z,21.70
2023-09-08T07:11:05.650Z,14.60
2023-09-08T07:13:32.310Z,20.83
2023-09-08T07:15:58.915Z,19.67
2023-09-08T07:18:25.784Z,24.30
2023-09-08T07:20:52.316Z,17.95
2023-09-08T07:23:18.998Z,21.48
2023-09-08T07:25:47.930Z,20.98
2023-09-08T07:28:14.546Z,19.85
2023-09-08T07:30:41.231Z,23.70
2023-09-08T07:33:08.024Z,23.70
2023-09-08T07:35:37.633Z,20.25
2023-09-08T07:38:04.426Z,17.25
2023-09-08T07:40:31.050Z,16.73
2023-09-08T07:42:58.887Z,22.42
2023-09-08T07:45:25.532Z,20.15
2023-09-08T07:47:52.471Z,22.25
2023-09-08T07:50:21.324Z,22.83
2023-09-08T07:52:48.148Z,27.17
2023-09-08T07:55:15.013Z,19.33
2023-09-08T07:57:43.226Z,22.33
2023-09-08T08:00:12.153Z,21.88
2023-09-08T08:02:38.914Z,23.52
2023-09-08T08:05:06.145Z,17.83
2023-09-08T08:07:32.623Z,20.38
2023-09-08T08:09:59.317Z,21.02
2023-09-08T08:12:25.797Z,20.42
2023-09-08T08:14:52.397Z,20.45
2023-09-08T08:17:20.263Z,21.75
2023-09-08T08:19:46.839Z,24.15
2023-09-08T08:22:13.374Z,20.40
2023-09-08T08:24:40.099Z,20.65
2023-09-08T08:27:06.652Z,18.58
2023-09-08T08:29:33.184Z,21.42
2023-09-08T08:31:59.685Z,21.00
2023-09-08T08:34:27.572Z,21.25
2023-09-08T08:36:54.187Z,16.92
2023-09-08T08:39:20.792Z,18.02
2023-09-08T08:41:47.354Z,21.35
2023-09-08T08:44:16.423Z,20.02
2023-09-08T08:46:44.144Z,16.05
2023-09-08T08:49:12.108Z,19.98
2023-09-08T08:51:41.614Z,17.58
2023-09-08T08:54:08.171Z,14.93
2023-09-08T08:56:37.278Z,15.57
2023-09-08T08:59:05.032Z,19.20
2023-09-08T09:01:32.440Z,15.60
2023-09-08T09:03:59.369Z,17.05
2023-09-08T09:06:26.040Z,18.40
2023-09-08T09:08:53.934Z,13.45
2023-09-08T09:11:20.478Z,17.10
2023-09-08T09:13:47.051Z,14.85
2023-09-08T09:16:13.569Z,13.25
2023-09-08T09:18:57.303Z,14.45
2023-09-08T09:21:24.552Z,15.43
2023-09-08T09:23:51.170Z,13.50
2023-09-08T09:26:26.661Z,16.42
2023-09-08T09:28:53.484Z,15.00
2023-09-08T09:31:20.098Z,16.40
2023-09-08T09:33:46.665Z,10.73
2023-09-08T09:36:21.812Z,16.13
2023-09-08T09:38:48.390Z,11.15
2023-09-08T09:41:15.064Z,17.23
2023-09-08T09:43:43.605Z,14.80
2023-09-08T09:46:10.433Z,12.15
2023-09-08T09:48:37.616Z,11.80
2023-09-08T09:51:16.756Z,11.30
2023-09-08T09:53:43.870Z,10.73
2023-09-08T09:56:11.984Z,11.43
2023-09-08T09:58:39.113Z,13.77
2023-09-08T10:01:07.378Z,9.88
2023-09-08T10:03:34.474Z,10.98
2023-09-08T10:06:01.268Z,9.60
2023-09-08T10:08:28.549Z,9.68
2023-09-08T10:10:55.954Z,9.40
2023-09-08T10:13:28.034Z,10.85
2023-09-08T10:15:58.320Z,12.43
2023-09-08T10:18:27.747Z,10.02
2023-09-08T10:20:57.634Z,12.80
2023-09-08T10:23:32.544Z,11.52
2023-09-08T10:26:04.079Z,9.35
2023-09-08T10:28:31.651Z,11.77
2023-09-08T10:30:58.766Z,14.60
2023-09-08T10:33:27.765Z,9.15
2023-09-08T10:35:54.982Z,9.02
2023-09-08T10:38:26.451Z,11.05
2023-09-08T10:40:53.358Z,11.27
2023-09-08T10:43:20.410Z,11.77
2023-09-08T10:45:47.222Z,7.18
2023-09-08T10:48:15.008Z,9.10
2023-09-08T10:50:43.138Z,8.00
2023-09-08T10:53:14.126Z,9.82
2023-09-08T10:55:42.050Z,9.18
2023-09-08T10:58:10.738Z,7.85
2023-09-08T11:00:47.928Z,9.50
2023-09-08T11:03:15.222Z,9.18
2023-09-08T11:05:43.967Z,9.48
2023-09-08T11:08:10.446Z,6.95
2023-09-08T11:10:37.092Z,9.13
2023-09-08T11:13:03.726Z,10.40
2023-09-08T11:15:30.260Z,8.55
2023-09-08T11:17:56.966Z,8.18
2023-09-08T11:20:27.451Z,8.25
2023-09-08T11:22:55.563Z,9.60
2023-09-08T11:25:22.107Z,6.53
2023-09-08T11:27:49.686Z,9.00
2023-09-08T11:30:16.275Z,8.15
2023-09-08T11:32:42.872Z,7.90
2023-09-08T11:35:11.069Z,8.10
2023-09-08T11:37:38.721Z,6.00
2023-09-08T11:40:08.217Z,8.00
2023-09-08T11:42:34.804Z,7.10
2023-09-08T11:45:01.486Z,6.75
2023-09-08T11:47:28.096Z,6.18
2023-09-08T11:49:54.688Z,9.52
2023-09-08T11:52:23.839Z,4.40
2023-09-08T11:55:05.823Z,4.03
2023-09-08T11:57:35.766Z,6.55
2023-09-08T12:00:03.432Z,7.00
2023-09-08T12:02:30.080Z,5.50
2023-09-08T12:04:56.598Z,5.53
2023-09-08T12:07:23.159Z,5.95
2023-09-08T12:09:49.816Z,4.25
2023-09-08T12:12:16.385Z,7.13
2023-09-08T12:14:47.574Z,9.60
2023-09-08T12:17:14.851Z,5.15
2023-09-08T12:19:41.382Z,6.05
2023-09-08T12:22:08.226Z,4.68
2023-09-08T12:24:56.966Z,7.53
2023-09-08T12:27:24.322Z,5.63
2023-09-08T12:29:56.554Z,6.93
2023-09-08T12:32:23.755Z,10.70
2023-09-08T12:34:51.426Z,9.43
2023-09-08T12:37:21.464Z,6.25
2023-09-08T12:39:48.022Z,6.95
2023-09-08T12:42:14.616Z,15.50
2023-09-08T12:44:41.427Z,5.10
2023-09-08T12:47:11.333Z,10.45
2023-09-08T12:49:37.960Z,6.88
2023-09-08T12:52:05.172Z,7.63
2023-09-08T12:54:31.714Z,7.03
2023-09-08T12:56:58.222Z,4.75
2023-09-08T12:59:24.767Z,5.45
2023-09-08T13:01:51.501Z,7.75
2023-09-08T13:04:19.513Z,7.00
2023-09-08T13:06:46.234Z,5.90
2023-09-08T13:09:12.725Z,8.05
2023-09-08T13:11:39.321Z,5.20
2023-09-08T13:14:05.842Z,5.45
2023-09-08T13:16:32.498Z,11.70
2023-09-08T13:18:59.461Z,5.53
2023-09-08T13:21:27.435Z,6.82
2023-09-08T13:23:53.926Z,5.30
2023-09-08T13:26:20.527Z,4.50
2023-09-08T13:28:47.045Z,6.07
2023-09-08T13:31:13.610Z,5.03
2023-09-08T13:33:40.130Z,5.32
2023-09-08T13:36:07.478Z,9.38
2023-09-08T13:38:36.350Z,5.32
2023-09-08T13:41:03.032Z,9.00
2023-09-08T13:43:29.513Z,5.50
2023-09-08T13:45:56.034Z,6.00
2023-09-08T13:48:24.963Z,8.45
2023-09-08T13:50:54.005Z,9.55
2023-09-08T13:53:21.553Z,6.50
2023-09-08T13:55:51.325Z,5.10
2023-09-08T13:58:20.151Z,5.80
2023-09-08T14:00:47.890Z,8.38
2023-09-08T14:03:21.985Z,8.68
2023-09-08T14:05:54.089Z,6.55
2023-09-08T14:08:28.218Z,6.13
2023-09-08T14:13:26.880Z,7.38
2023-09-08T14:15:54.484Z,5.70
2023-09-08T14:18:21.165Z,5.72
2023-09-08T14:20:47.638Z,6.10
2023-09-08T14:23:14.302Z,6.32
2023-09-08T14:25:40.928Z,7.18
2023-09-08T14:28:08.829Z,5.53
2023-09-08T14:30:35.920Z,11.18
2023-09-08T14:33:02.579Z,6.65
2023-09-08T14:35:29.090Z,7.85
2023-09-08T14:37:55.671Z,5.57
2023-09-08T14:40:23.999Z,8.05
2023-09-08T14:42:53.898Z,7.88
2023-09-08T14:45:22.395Z,6.60
2023-09-08T14:47:49.022Z,10.93
2023-09-08T14:50:15.641Z,8.50
2023-09-08T14:52:42.166Z,9.57
2023-09-08T14:55:09.111Z,7.15
2023-09-08T14:57:35.761Z,7.00
2023-09-08T15:00:03.152Z,5.50
2023-09-08T15:02:31.145Z,10.18
2023-09-08T15:04:57.758Z,6.45
2023-09-08T15:07:24.354Z,5.30
2023-09-08T15:09:50.917Z,5.35
2023-09-08T15:12:17.477Z,15.73
2023-09-08T15:14:44.072Z,10.48
2023-09-08T15:17:11.760Z,8.57
2023-09-08T15:19:39.770Z,8.02
2023-09-08T15:22:06.256Z,5.97
2023-09-08T15:24:32.744Z,8.13
2023-09-08T15:26:59.278Z,8.52
2023-09-08T15:29:25.791Z,6.45
2023-09-08T15:31:52.394Z,6.20
2023-09-08T15:34:18.997Z,12.85
2023-09-08T15:36:46.818Z,11.27
2023-09-08T15:39:13.433Z,6.78
2023-09-08T15:41:40.061Z,8.35
2023-09-08T15:44:06.616Z,6.97
2023-09-08T15:46:33.158Z,9.82
2023-09-08T15:48:59.730Z,4.70
2023-09-08T15:51:26.275Z,7.43
2023-09-08T15:53:54.156Z,5.88
2023-09-08T15:56:20.637Z,7.15
2023-09-08T15:58:47.223Z,5.18
2023-09-08T16:01:13.805Z,5.65
2023-09-08T16:03:42.767Z,7.28
2023-09-08T16:06:09.652Z,8.10
2023-09-08T16:08:37.571Z,7.70
2023-09-08T16:11:05.890Z,7.57
2023-09-08T16:13:32.739Z,12.27
2023-09-08T16:15:59.352Z,7.32
2023-09-08T16:18:26.021Z,9.35
2023-09-08T16:20:53.275Z,7.05
2023-09-08T16:23:19.887Z,6.78
2023-09-08T16:25:46.484Z,9.90
2023-09-08T16:28:14.319Z,5.75
2023-09-08T16:30:40.915Z,5.03
2023-09-08T16:33:07.471Z,8.73
2023-09-08T16:35:34.685Z,5.10
2023-09-08T16:38:01.227Z,9.55
2023-09-08T16:40:27.809Z,11.18
2023-09-08T16:42:54.369Z,10.85
2023-09-08T16:45:22.169Z,7.07
2023-09-08T16:47:48.703Z,7.63
2023-09-08T16:50:15.236Z,6.10
2023-09-08T16:52:41.905Z,6.10
2023-09-08T16:55:08.898Z,7.55
2023-09-08T16:57:35.429Z,8.95
2023-09-08T17:00:02.298Z,6.07
2023-09-08T17:02:30.321Z,7.07
2023-09-08T17:04:57.048Z,7.05
2023-09-08T17:07:23.716Z,8.00
2023-09-08T17:09:50.338Z,12.73
2023-09-08T17:12:16.878Z,7.60
2023-09-08T17:14:43.543Z,7.68
2023-09-08T17:17:10.085Z,6.57
2023-09-08T17:19:37.907Z,7.07
2023-09-08T17:22:04.584Z,5.38
2023-09-08T17:24:31.078Z,7.20
2023-09-08T17:26:57.968Z,7.07
2023-09-08T17:29:24.599Z,6.82
2023-09-08T17:31:51.135Z,6.10
2023-09-08T17:34:19.577Z,8.13
2023-09-08T17:36:47.433Z,8.32
2023-09-08T17:39:14.042Z,11.05
2023-09-08T17:41:40.521Z,11.80
2023-09-08T17:44:07.080Z,6.20
2023-09-08T17:46:33.687Z,10.88
2023-09-08T17:49:00.245Z,6.57
2023-09-08T17:51:26.745Z,5.90
2023-09-08T17:53:54.615Z,7.30
2023-09-08T17:56:21.080Z,10.27
2023-09-08T17:58:47.604Z,8.05
2023-09-08T18:01:14.367Z,9.85
2023-09-08T18:03:41.213Z,6.85
2023-09-08T18:06:08.076Z,10.32
2023-09-08T18:08:34.609Z,7.50
2023-09-08T18:11:03.398Z,8.23
2023-09-08T18:13:29.966Z,12.15
2023-09-08T18:15:58.274Z,13.07
2023-09-08T18:18:24.878Z,10.90
2023-09-08T18:20:51.525Z,19.13
2023-09-08T18:23:18.453Z,10.70
2023-09-08T18:25:45.161Z,10.77
2023-09-08T18:28:14.920Z,11.90
2023-09-08T18:30:41.950Z,10.88
2023-09-08T18:33:08.568Z,10.25
2023-09-08T18:35:35.254Z,12.38
2023-09-08T18:38:02.089Z,16.67
2023-09-08T18:40:28.629Z,12.50
2023-09-08T18:42:55.165Z,10.70
2023-09-08T18:45:23.154Z,10.10
2023-09-08T18:47:49.792Z,11.80
2023-09-08T18:50:16.389Z,11.68
2023-09-08T18:52:42.970Z,12.43
2023-09-08T18:55:09.583Z,15.25
2023-09-08T18:57:36.102Z,12.27
2023-09-08T19:00:02.694Z,12.82
2023-09-08T19:02:30.755Z,14.38
2023-09-08T19:04:57.500Z,14.32
2023-09-08T19:07:24.159Z,11.10
2023-09-08T19:09:50.654Z,12.40
2023-09-08T19:12:17.197Z,14.63
2023-09-08T19:14:43.743Z,16.42
2023-09-08T19:17:10.315Z,15.45
2023-09-08T19:19:38.128Z,11.88
2023-09-08T19:22:04.622Z,15.38
2023-09-08T19:24:31.203Z,16.55
2023-09-08T19:26:57.782Z,13.85
2023-09-08T19:29:24.263Z,12.32
2023-09-08T19:31:50.844Z,16.50
2023-09-08T19:34:17.386Z,18.35
2023-09-08T19:36:45.225Z,13.75
2023-09-08T19:39:11.923Z,18.52
2023-09-08T19:41:38.393Z,19.80
2023-09-08T19:44:05.260Z,21.92
2023-09-08T19:46:35.664Z,22.20
2023-09-08T19:49:02.560Z,16.42
2023-09-08T19:51:29.237Z,22.85
2023-09-08T19:53:57.315Z,14.30
2023-09-08T19:56:24.573Z,21.13
2023-09-08T19:58:51.097Z,18.13
2023-09-08T20:01:18.103Z,22.85
2023-09-08T20:03:44.661Z,18.83
2023-09-08T20:06:13.826Z,18.73
2023-09-08T20:08:40.381Z,22.08
2023-09-08T20:11:08.497Z,16.95
2023-09-08T20:13:35.385Z,17.27
2023-09-08T20:16:04.218Z,18.60
2023-09-08T20:18:30.897Z,19.13
2023-09-08T20:20:59.299Z,23.00
2023-09-08T20:23:25.889Z,18.02
2023-09-08T20:25:52.604Z,19.02
2023-09-08T20:28:20.681Z,22.13
2023-09-08T20:30:58.387Z,18.00
2023-09-08T20:33:36.092Z,19.52
2023-09-08T20:36:02.740Z,20.13
2023-09-08T20:38:29.439Z,20.90
2023-09-08T20:40:56.073Z,19.98
2023-09-08T20:43:32.257Z,21.70
2023-09-08T20:46:02.002Z,17.00
2023-09-08T20:48:28.552Z,22.77
2023-09-08T20:50:59.540Z,22.30
2023-09-08T20:53:26.056Z,19.60
2023-09-08T20:55:52.634Z,19.77
2023-09-08T20:58:19.089Z,21.63
2023-09-08T21:00:47.000Z,25.77
2023-09-08T21:03:13.536Z,23.65
2023-09-08T21:05:40.113Z,20.92
2023-09-08T21:08:07.062Z,24.58
2023-09-08T21:10:33.544Z,18.23
2023-09-08T21:13:00.213Z,24.17
2023-09-08T21:15:26.788Z,21.35
2023-09-08T21:17:54.702Z,20.70
2023-09-08T21:20:21.335Z,20.67
2023-09-08T21:22:47.833Z,22.83
2023-09-08T21:25:14.356Z,22.23
2023-09-08T21:27:40.901Z,20.52
2023-09-08T21:30:08.391Z,28.42
2023-09-08T21:32:34.958Z,25.88
2023-09-08T21:35:02.912Z,22.85
2023-09-08T21:37:29.445Z,24.77
2023-09-08T21:39:56.101Z,23.63
2023-09-08T21:42:22.657Z,28.58
2023-09-08T21:44:49.203Z,28.38
2023-09-08T21:47:15.698Z,33.20
2023-09-08T21:49:42.348Z,27.15
2023-09-08T21:52:10.700Z,24.67
2023-09-08T21:54:38.228Z,32.78
2023-09-08T21:57:05.255Z,30.45
2023-09-08T21:59:31.847Z,27.65
2023-09-08T22:01:58.359Z,25.25
2023-09-08T22:04:25.094Z,19.65
2023-09-08T22:06:51.722Z,23.95
2023-09-08T22:09:19.992Z,20.88
2023-09-08T22:11:46.703Z,27.98
2023-09-08T22:14:14.208Z,22.75
2023-09-08T22:16:40.929Z,23.20
2023-09-08T22:19:07.950Z,22.55
2023-09-08T22:21:34.558Z,32.97
2023-09-08T22:24:01.232Z,20.75
2023-09-08T22:26:29.193Z,22.10
2023-09-08T22:28:55.749Z,19.92
2023-09-08T22:31:22.346Z,22.45
2023-09-08T22:33:49.065Z,22.65
2023-09-08T22:36:16.338Z,19.60
2023-09-08T22:38:42.861Z,18.08
2023-09-08T22:41:09.397Z,19.05
2023-09-08T22:43:37.405Z,25.15
2023-09-08T22:46:04.110Z,26.58
2023-09-08T22:48:30.625Z,24.25
2023-09-08T22:50:57.121Z,26.90
2023-09-08T22:53:23.667Z,30.35
2023-09-08T22:55:50.322Z,31.52
2023-09-08T22:58:16.980Z,23.02
2023-09-08T23:00:44.908Z,25.83
2023-09-08T23:03:11.560Z,25.33
2023-09-08T23:05:38.219Z,27.02
2023-09-08T23:08:05.145Z,31.73
2023-09-08T23:10:31.672Z,23.10
2023-09-08T23:12:58.181Z,23.15
2023-09-08T23:15:24.728Z,21.42
2023-09-08T23:17:52.764Z,25.77
2023-09-08T23:20:19.391Z,27.58
2023-09-08T23:22:45.926Z,23.73
2023-09-08T23:25:12.463Z,21.88
2023-09-08T23:27:39.346Z,21.58
2023-09-08T23:30:07.477Z,22.50
2023-09-08T23:32:34.103Z,21.83
2023-09-08T23:35:02.075Z,23.83
2023-09-08T23:37:28.582Z,21.35
2023-09-08T23:39:55.119Z,27.25
2023-09-08T23:42:21.618Z,29.52
2023-09-08T23:44:48.147Z,22.63
2023-09-08T23:47:14.703Z,24.48
2023-09-08T23:49:41.178Z,22.48
2023-09-08T23:52:09.010Z,22.05
2023-09-08T23:54:35.519Z,21.20
2023-09-08T23:57:02.227Z,23.85
2023-09-08T23:59:28.790Z,25.20
